Time;durP1;ratioP1;P1;durP2;ratioP2;P2;SDS_P1;SDS_P2;PMS_P1;PMS_P2;Temp;Humidity;BMP_temperature;BMP_pressure;BME280_temperature;BME280_humidity;BME280_pressure;Samples;Min_cycle;Max_cycle;Signal;HPM_P1;HPM_P2
2022/09/05 00:01:39;;;;;;;3.35;2.55;;;18.10;99.90;;;;;;5026386;28;20063;-68
2022/09/05 00:04:12;;;;;;;3.92;2.58;;;18.10;99.90;;;;;;5020383;28;20053;-68
2022/09/05 00:06:48;;;;;;;5.07;2.60;;;18.10;99.90;;;;;;5026503;28;20137;-69
2022/09/05 00:09:35;;;;;;;4.47;2.45;;;18.10;99.90;;;;;;5040841;28;20048;-69
2022/09/05 00:12:04;;;;;;;7.35;2.60;;;18.10;99.90;;;;;;5025222;28;20600;-68
2022/09/05 00:15:01;;;;;;;4.38;2.75;;;18.10;99.90;;;;;;5024532;28;20044;-69
2022/09/05 00:17:43;;;;;;;3.95;3.25;;;18.10;99.90;;;;;;5007220;28;20053;-69
2022/09/05 00:20:15;;;;;;;3.80;2.70;;;18.20;99.90;;;;;;5041877;28;20045;-69
2022/09/05 00:22:57;;;;;;;3.35;2.63;;;18.10;99.90;;;;;;5025232;28;20124;-69
2022/09/05 00:26:18;;;;;;;4.45;2.78;;;18.10;99.90;;;;;;5026929;28;20045;-69
2022/09/05 00:29:13;;;;;;;5.37;3.20;;;18.10;99.90;;;;;;5034679;28;20048;-69
2022/09/05 00:32:10;;;;;;;3.30;2.88;;;18.20;99.90;;;;;;4984423;28;20097;-69
2022/09/05 00:35:12;;;;;;;4.47;3.15;;;18.10;99.90;;;;;;5042335;28;20037;-69
2022/09/05 00:37:45;;;;;;;5.35;2.90;;;18.10;99.90;;;;;;5024933;28;20068;-69
2022/09/05 00:40:39;;;;;;;5.95;3.10;;;18.10;99.90;;;;;;5040712;28;20051;-69
2022/09/05 00:43:10;;;;;;;6.43;3.20;;;18.10;99.90;;;;;;5033426;28;20052;-69
2022/09/05 00:45:57;;;;;;;4.72;2.85;;;18.10;99.90;;;;;;5023089;28;20118;-69
2022/09/05 00:48:42;;;;;;;4.35;2.85;;;18.10;99.90;;;;;;4989074;28;20046;-69
2022/09/05 00:51:38;;;;;;;5.75;3.13;;;18.00;99.90;;;;;;5002355;28;20456;-69
2022/09/05 00:54:27;;;;;;;3.85;3.13;;;18.00;99.90;;;;;;5001861;28;20056;-69
2022/09/05 00:57:12;;;;;;;8.13;3.28;;;18.00;99.90;;;;;;5000402;28;20268;-69
2022/09/05 01:00:01;;;;;;;5.97;3.50;;;18.00;99.90;;;;;;5017420;28;20046;-69
2022/09/05 01:02:29;;;;;;;8.75;3.40;;;18.00;99.90;;;;;;5017526;28;20160;-69
2022/09/05 01:05:16;;;;;;;4.78;2.90;;;17.80;99.90;;;;;;5004421;28;20586;-69
2022/09/05 01:08:14;;;;;;;3.20;2.88;;;17.90;99.90;;;;;;5004104;28;20038;-69
2022/09/05 01:10:59;;;;;;;6.15;3.25;;;17.80;99.90;;;;;;5018922;28;20381;-69
2022/09/05 01:13:58;;;;;;;5.13;3.47;;;17.80;99.90;;;;;;5019917;28;20138;-69
2022/09/05 01:16:35;;;;;;;4.55;3.17;;;17.80;99.90;;;;;;5010489;28;21270;-69
2022/09/05 01:19:38;;;;;;;4.43;3.10;;;17.70;99.90;;;;;;5018980;28;20052;-68
2022/09/05 01:22:32;;;;;;;5.20;3.38;;;17.70;99.90;;;;;;5016058;28;20054;-68
2022/09/05 01:25:19;;;;;;;6.20;3.75;;;17.60;99.90;;;;;;5018543;28;20513;-68
2022/09/05 01:28:07;;;;;;;4.38;3.03;;;17.60;99.90;;;;;;5006078;28;20096;-68
2022/09/05 01:30:42;;;;;;;3.42;3.13;;;17.50;99.90;;;;;;5022869;28;20099;-69
2022/09/05 01:33:27;;;;;;;8.50;3.30;;;17.40;99.90;;;;;;5020703;28;20064;-68
2022/09/05 01:36:10;;;;;;;6.10;3.47;;;17.30;99.90;;;;;;5023431;28;20064;-68
2022/09/05 01:38:55;;;;;;;4.47;3.22;;;17.30;99.90;;;;;;5009379;28;20509;-68
2022/09/05 01:41:32;;;;;;;4.05;3.10;;;17.30;99.90;;;;;;5016305;28;20501;-69
2022/09/05 01:44:13;;;;;;;4.75;3.35;;;17.20;99.90;;;;;;5019912;28;20493;-69
2022/09/05 01:46:51;;;;;;;4.15;3.10;;;17.20;99.90;;;;;;5017857;28;20057;-69
2022/09/05 01:49:57;;;;;;;4.88;3.72;;;17.20;99.90;;;;;;5040080;28;20057;-68
2022/09/05 01:53:12;;;;;;;6.70;3.58;;;17.20;99.90;;;;;;5037217;28;20049;-69
2022/09/05 01:55:53;;;;;;;5.57;3.90;;;17.20;99.90;;;;;;4970463;28;20082;-68
2022/09/05 01:58:26;;;;;;;4.38;3.55;;;17.20;99.90;;;;;;4944557;28;20054;-69
2022/09/05 02:01:05;;;;;;;6.72;3.60;;;17.20;99.90;;;;;;5017966;28;20496;-68
2022/09/05 02:03:43;;;;;;;3.95;3.30;;;17.10;99.90;;;;;;5038751;28;20071;-69
2022/09/05 02:06:37;;;;;;;5.47;3.75;;;17.10;99.90;;;;;;5034273;28;20057;-69
2022/09/05 02:09:21;;;;;;;4.70;4.00;;;17.00;99.90;;;;;;5036434;28;20049;-69
2022/09/05 02:11:53;;;;;;;5.72;4.03;;;17.00;99.90;;;;;;5036696;28;20054;-69
2022/09/05 02:14:50;;;;;;;4.15;3.75;;;17.00;99.90;;;;;;5038473;28;20049;-68
2022/09/05 02:17:45;;;;;;;5.75;3.63;;;16.90;99.90;;;;;;5028053;28;20042;-68
2022/09/05 02:20:25;;;;;;;5.25;4.30;;;16.90;99.90;;;;;;5036432;28;20064;-68
2022/09/05 02:23:20;;;;;;;5.97;4.33;;;17.00;99.90;;;;;;5035855;28;20057;-68
2022/09/05 02:25:57;;;;;;;5.93;4.53;;;17.00;99.90;;;;;;5040483;28;20519;-68
2022/09/05 02:28:49;;;;;;;5.93;4.35;;;17.10;99.90;;;;;;5022630;28;20045;-68
2022/09/05 02:31:38;;;;;;;7.00;4.30;;;17.10;99.90;;;;;;5036898;28;20084;-69
2022/09/05 02:34:37;;;;;;;6.35;4.28;;;17.10;99.90;;;;;;5030429;28;20038;-68
2022/09/05 02:37:24;;;;;;;5.60;4.50;;;17.10;99.90;;;;;;5005919;28;21029;-68
2022/09/05 02:39:55;;;;;;;8.65;4.40;;;17.10;99.90;;;;;;5042999;28;20377;-69
2022/09/05 02:42:31;;;;;;;5.57;4.80;;;17.10;99.90;;;;;;5041376;28;20049;-68
2022/09/05 02:45:07;;;;;;;5.18;4.35;;;17.10;99.90;;;;;;5041139;28;20115;-69
2022/09/05 02:47:54;;;;;;;7.13;4.57;;;17.10;99.90;;;;;;5029816;28;20470;-68
2022/09/05 02:50:39;;;;;;;6.50;4.47;;;17.10;99.90;;;;;;5044456;28;20469;-69
2022/09/05 02:53:08;;;;;;;6.88;4.47;;;17.10;99.90;;;;;;5041586;28;20275;-69
2022/09/05 02:56:07;;;;;;;4.97;4.25;;;17.00;99.90;;;;;;5043592;28;20107;-69
2022/09/05 02:59:06;;;;;;;9.32;5.15;;;17.00;99.90;;;;;;5034149;28;20056;-68
2022/09/05 03:02:01;;;;;;;6.93;4.72;;;16.90;99.90;;;;;;5043659;28;20102;-69
2022/09/05 03:04:49;;;;;;;10.05;4.95;;;16.90;99.90;;;;;;5043936;28;20133;-69
2022/09/05 03:07:55;;;;;;;7.57;4.90;;;16.90;99.90;;;;;;5027098;28;20107;-68
2022/09/05 03:10:39;;;;;;;6.72;4.72;;;16.80;99.90;;;;;;5038749;28;20049;-69
2022/09/05 03:13:23;;;;;;;6.40;5.25;;;16.70;99.90;;;;;;5040921;28;20070;-68
2022/09/05 03:16:25;;;;;;;7.93;5.22;;;16.50;99.90;;;;;;5043335;28;20096;-68
2022/09/05 03:19:06;;;;;;;5.85;5.15;;;16.40;99.90;;;;;;5037020;28;20488;-67
2022/09/05 03:22:08;;;;;;;6.65;5.40;;;16.30;99.90;;;;;;5039093;28;20041;-69
2022/09/05 03:24:58;;;;;;;10.45;5.82;;;16.20;99.90;;;;;;5042878;28;20120;-68
2022/09/05 03:28:02;;;;;;;7.03;5.55;;;16.00;99.90;;;;;;5024010;28;20068;-68
2022/09/05 03:30:40;;;;;;;7.95;5.07;;;16.00;99.90;;;;;;5039126;28;20409;-68
2022/09/05 03:33:14;;;;;;;6.88;5.05;;;16.10;99.90;;;;;;5041415;28;20456;-67
2022/09/05 03:36:11;;;;;;;5.20;4.43;;;16.00;99.90;;;;;;5041722;28;20512;-68
2022/09/05 03:38:55;;;;;;;6.90;4.97;;;16.10;99.90;;;;;;5038184;28;20041;-68
2022/09/05 03:41:27;;;;;;;8.88;5.45;;;16.10;99.90;;;;;;5039339;28;20057;-68
2022/09/05 03:44:16;;;;;;;10.57;5.15;;;16.10;99.90;;;;;;5041581;28;20068;-69
2022/09/05 03:46:52;;;;;;;8.07;5.13;;;16.10;99.90;;;;;;5029583;28;20041;-69
2022/09/05 03:50:00;;;;;;;6.50;4.80;;;16.10;99.90;;;;;;5038578;28;20052;-68
2022/09/05 03:52:31;;;;;;;6.68;4.82;;;16.20;99.90;;;;;;5047185;28;20052;-69
2022/09/05 03:55:29;;;;;;;5.43;4.72;;;16.20;99.90;;;;;;5042710;28;20049;-69
2022/09/05 03:58:15;;;;;;;5.60;4.85;;;16.20;99.90;;;;;;4960573;28;20048;-68
2022/09/05 04:00:56;;;;;;;6.65;4.82;;;16.20;99.90;;;;;;5040849;28;20060;-68
2022/09/05 04:03:31;;;;;;;8.35;5.78;;;16.10;99.90;;;;;;5039172;28;20042;-67
2022/09/05 04:06:15;;;;;;;6.05;5.10;;;15.90;99.90;;;;;;5043816;28;20044;-68
2022/09/05 04:08:53;;;;;;;7.47;4.95;;;15.90;99.90;;;;;;5035975;28;20399;-68
2022/09/05 04:11:38;;;;;;;7.15;4.80;;;15.90;99.90;;;;;;5043317;28;20417;-69
2022/09/05 04:14:07;;;;;;;6.60;4.93;;;15.90;99.90;;;;;;5043393;28;20298;-68
2022/09/05 04:16:54;;;;;;;6.60;5.10;;;15.70;99.90;;;;;;5029710;28;20834;-68
2022/09/05 04:19:33;;;;;;;6.40;5.60;;;15.70;99.90;;;;;;5038957;28;20043;-68
2022/09/05 04:22:18;;;;;;;7.10;5.20;;;15.60;99.90;;;;;;5022823;28;20045;-67
2022/09/05 04:24:54;;;;;;;9.15;5.20;;;15.70;99.90;;;;;;5042831;28;20087;-68
2022/09/05 04:27:41;;;;;;;9.90;5.72;;;15.70;99.90;;;;;;5027250;28;20040;-68
2022/09/05 04:30:45;;;;;;;6.72;5.40;;;15.70;99.90;;;;;;5038912;28;20458;-68
2022/09/05 04:33:34;;;;;;;6.82;5.45;;;15.60;99.90;;;;;;5034468;28;20053;-68
2022/09/05 04:36:17;;;;;;;7.45;5.53;;;15.60;99.90;;;;;;5037981;28;20034;-68
2022/09/05 04:38:44;;;;;;;6.90;5.25;;;15.60;99.90;;;;;;5032518;28;20048;-67
2022/09/05 04:41:12;;;;;;;7.65;5.03;;;15.60;99.90;;;;;;5037145;28;20144;-68
2022/09/05 04:43:48;;;;;;;6.43;5.40;;;15.50;99.90;;;;;;5035920;28;20098;-69
2022/09/05 04:46:21;;;;;;;6.70;5.47;;;15.40;99.90;;;;;;5034019;28;20546;-68
2022/09/05 04:49:06;;;;;;;7.85;5.60;;;15.40;99.90;;;;;;5037153;28;20045;-68
2022/09/05 04:52:03;;;;;;;6.32;5.28;;;15.40;99.90;;;;;;5037482;28;20045;-68
2022/09/05 04:54:45;;;;;;;8.23;5.80;;;15.50;99.90;;;;;;5041840;28;20044;-68
2022/09/05 04:57:14;;;;;;;7.22;5.95;;;15.60;99.90;;;;;;5023165;28;20484;-68
2022/09/05 04:59:50;;;;;;;9.32;5.85;;;15.60;99.90;;;;;;5037857;28;20110;-68
2022/09/05 05:02:24;;;;;;;6.50;5.75;;;15.60;99.90;;;;;;5036422;28;20408;-68
2022/09/05 05:05:00;;;;;;;7.97;5.78;;;15.60;99.90;;;;;;5044503;28;20045;-68
2022/09/05 05:07:48;;;;;;;9.73;6.60;;;15.60;99.90;;;;;;5024072;28;20033;-68
2022/09/05 05:10:42;;;;;;;8.57;6.30;;;15.70;99.90;;;;;;5040177;28;20054;-68
2022/09/05 05:13:14;;;;;;;9.88;6.10;;;15.70;99.90;;;;;;5030263;28;20528;-67
2022/09/05 05:15:56;;;;;;;5.82;5.22;;;15.70;99.90;;;;;;5041883;28;20060;-69
2022/09/05 05:18:25;;;;;;;13.02;6.15;;;15.70;99.90;;;;;;5025358;28;20049;-68
2022/09/05 05:21:12;;;;;;;8.80;6.57;;;15.70;99.90;;;;;;5042148;28;20124;-68
2022/09/05 05:23:40;;;;;;;7.65;5.88;;;15.80;99.90;;;;;;5057453;28;20045;-68
2022/09/05 05:26:19;;;;;;;8.57;6.00;;;15.70;99.90;;;;;;5039274;28;20465;-69
2022/09/05 05:28:52;;;;;;;9.13;6.15;;;15.70;99.90;;;;;;5031808;28;20038;-68
2022/09/05 05:31:26;;;;;;;8.27;6.30;;;15.70;99.90;;;;;;5039298;28;20048;-68
2022/09/05 05:33:54;;;;;;;7.20;6.25;;;15.60;99.90;;;;;;5036216;28;20045;-68
2022/09/05 05:36:25;;;;;;;8.57;6.50;;;15.60;99.90;;;;;;5010882;28;20124;-69
2022/09/05 05:39:09;;;;;;;7.65;6.60;;;15.70;99.90;;;;;;5039056;28;20055;-69
2022/09/05 05:41:50;;;;;;;9.85;6.68;;;15.70;99.90;;;;;;5034457;28;20120;-68
2022/09/05 05:44:37;;;;;;;7.32;6.63;;;15.80;99.90;;;;;;5037975;28;20131;-68
2022/09/05 05:47:25;;;;;;;11.57;6.80;;;15.90;99.90;;;;;;5025006;28;20535;-68
2022/09/05 05:49:54;;;;;;;11.15;6.88;;;16.00;99.90;;;;;;5034618;28;20049;-68
2022/09/05 05:52:35;;;;;;;8.02;7.22;;;16.00;99.90;;;;;;5036865;28;20515;-69
2022/09/05 05:55:15;;;;;;;12.07;6.75;;;16.10;99.90;;;;;;5040560;28;20435;-67
2022/09/05 05:57:53;;;;;;;6.88;6.05;;;16.20;99.90;;;;;;5019542;28;20053;-68
2022/09/05 06:00:36;;;;;;;8.23;6.40;;;16.30;99.90;;;;;;5039571;28;20037;-69
2022/09/05 06:03:39;;;;;;;9.73;6.57;;;16.40;99.90;;;;;;5037428;28;20049;-68
2022/09/05 06:06:26;;;;;;;8.73;6.40;;;16.50;99.90;;;;;;5039155;28;20091;-69
2022/09/05 06:09:33;;;;;;;7.68;6.30;;;16.70;99.90;;;;;;5032281;28;20136;-69
2022/09/05 06:12:30;;;;;;;8.68;6.60;;;16.90;99.90;;;;;;5037341;28;20054;-69
2022/09/05 06:15:09;;;;;;;11.05;6.97;;;17.00;99.90;;;;;;5041086;28;20415;-69
2022/09/05 06:17:49;;;;;;;11.63;7.20;;;17.20;99.90;;;;;;5024051;28;20120;-69
2022/09/05 06:20:30;;;;;;;10.50;6.25;;;17.40;99.90;;;;;;5039045;28;20884;-69
2022/09/05 06:23:28;;;;;;;10.90;6.97;;;17.60;99.90;;;;;;5039382;28;20136;-69
2022/09/05 06:26:31;;;;;;;9.63;6.50;;;17.70;99.90;;;;;;5039215;28;20052;-69
2022/09/05 06:29:32;;;;;;;9.00;6.57;;;17.90;99.90;;;;;;5036852;28;20064;-69
2022/09/05 06:32:13;;;;;;;10.02;6.38;;;17.90;99.90;;;;;;5032907;28;20314;-70
2022/09/05 06:35:03;;;;;;;10.48;6.68;;;18.10;99.90;;;;;;5038952;28;20149;-69
2022/09/05 06:37:40;;;;;;;11.00;6.35;;;18.20;99.90;;;;;;5022798;28;20044;-69
2022/09/05 06:40:15;;;;;;;8.73;6.18;;;18.40;99.90;;;;;;5035643;28;20061;-69
2022/09/05 06:42:50;;;;;;;8.40;6.20;;;18.50;99.90;;;;;;5037749;28;20084;-70
2022/09/05 06:45:43;;;;;;;8.95;6.22;;;18.60;99.90;;;;;;5038533;28;20049;-70
2022/09/05 06:48:18;;;;;;;12.88;6.18;;;18.60;99.90;;;;;;5005261;28;20056;-70
2022/09/05 06:50:57;;;;;;;8.35;6.00;;;18.80;99.90;;;;;;5040508;28;20067;-70
2022/09/05 06:54:04;;;;;;;8.35;6.40;;;18.80;99.90;;;;;;5036763;28;20045;-70
2022/09/05 06:56:44;;;;;;;9.30;5.90;;;19.00;99.90;;;;;;5022440;28;20072;-70
2022/09/05 06:59:47;;;;;;;7.70;6.38;;;19.00;99.90;;;;;;5035642;28;20239;-70
2022/09/05 07:02:22;;;;;;;12.95;5.53;;;19.10;99.90;;;;;;5033399;28;20053;-69
2022/09/05 07:05:04;;;;;;;7.28;5.82;;;19.00;99.90;;;;;;5036213;28;20040;-69
2022/09/05 07:07:43;;;;;;;10.38;5.57;;;19.10;99.90;;;;;;5020163;28;20069;-70
2022/09/05 07:10:34;;;;;;;8.60;5.90;;;19.20;99.90;;;;;;5039613;28;20056;-70
2022/09/05 07:13:33;;;;;;;11.27;5.78;;;19.30;99.90;;;;;;5034103;28;20052;-70
2022/09/05 07:16:09;;;;;;;7.50;5.80;;;19.30;99.90;;;;;;5006509;28;20057;-69
2022/09/05 07:18:52;;;;;;;11.50;5.60;;;19.40;99.90;;;;;;5030578;28;20138;-69
2022/09/05 07:21:20;;;;;;;6.50;5.03;;;19.50;99.90;;;;;;5038061;28;20222;-70
2022/09/05 07:24:26;;;;;;;7.13;5.13;;;19.50;99.90;;;;;;5042062;28;20044;-70
2022/09/05 07:26:56;;;;;;;7.05;5.13;;;19.60;99.90;;;;;;4966984;28;20354;-70
2022/09/05 07:29:29;;;;;;;6.20;5.28;;;19.70;99.90;;;;;;5031048;28;20044;-70
2022/09/05 07:31:56;;;;;;;7.95;5.40;;;19.80;99.90;;;;;;5024044;28;20053;-70
2022/09/05 07:34:29;;;;;;;10.13;5.50;;;19.80;99.90;;;;;;5038872;28;20041;-70
2022/09/05 07:36:57;;;;;;;8.18;5.50;;;19.90;99.90;;;;;;5007988;28;20033;-69
2022/09/05 07:39:27;;;;;;;11.25;5.13;;;19.90;99.90;;;;;;5038484;28;20095;-70
2022/09/05 07:41:58;;;;;;;7.63;5.35;;;20.00;99.90;;;;;;5043519;28;20028;-69
2022/09/05 07:44:28;;;;;;;7.22;5.32;;;20.00;99.90;;;;;;5039696;28;20055;-70
2022/09/05 07:47:05;;;;;;;8.07;4.78;;;20.00;99.90;;;;;;5027268;28;20103;-70
2022/09/05 07:49:34;;;;;;;8.43;5.40;;;20.10;99.90;;;;;;4964591;28;20527;-70
2022/09/05 07:52:27;;;;;;;10.13;5.07;;;20.20;99.90;;;;;;5038098;28;20523;-70
2022/09/05 07:54:57;;;;;;;9.73;5.18;;;20.30;99.90;;;;;;5036528;28;20124;-70
2022/09/05 07:57:30;;;;;;;7.88;5.50;;;20.30;99.90;;;;;;5023561;28;20076;-70
2022/09/05 08:00:09;;;;;;;8.65;4.88;;;20.40;99.90;;;;;;5046804;28;20539;-70
2022/09/05 08:02:45;;;;;;;6.43;5.10;;;20.60;99.90;;;;;;5036718;28;20033;-70
2022/09/05 08:05:14;;;;;;;5.22;4.30;;;20.50;99.90;;;;;;5040542;28;20424;-70
2022/09/05 08:07:43;;;;;;;7.60;5.10;;;20.70;99.90;;;;;;5025398;28;20226;-70
2022/09/05 08:10:18;;;;;;;9.07;5.18;;;20.80;99.90;;;;;;5038724;28;20048;-70
2022/09/05 08:12:49;;;;;;;9.05;5.60;;;20.80;99.90;;;;;;5039591;28;20137;-71
2022/09/05 08:15:23;;;;;;;7.95;5.68;;;20.90;99.90;;;;;;5039166;28;20068;-71
2022/09/05 08:18:21;;;;;;;9.57;5.53;;;20.90;99.90;;;;;;5023973;28;20044;-67
2022/09/05 08:20:55;;;;;;;9.80;5.40;;;20.90;99.90;;;;;;5043903;28;20045;-70
2022/09/05 08:23:30;;;;;;;10.48;5.45;;;20.90;99.90;;;;;;5043195;28;20163;-70
2022/09/05 08:26:06;;;;;;;7.38;5.28;;;20.90;99.90;;;;;;5036654;28;20795;-70
2022/09/05 08:28:51;;;;;;;12.27;5.15;;;21.00;99.90;;;;;;5010751;28;20080;-70
2022/09/05 08:31:50;;;;;;;6.72;4.75;;;21.10;99.90;;;;;;5041507;28;20085;-69
2022/09/05 08:34:25;;;;;;;8.30;5.10;;;21.30;99.90;;;;;;5035690;28;20559;-70
2022/09/05 08:36:55;;;;;;;8.00;4.82;;;21.30;99.90;;;;;;5026916;28;20076;-69
2022/09/05 08:39:24;;;;;;;5.47;4.85;;;21.40;99.90;;;;;;5040055;28;20048;-70
2022/09/05 08:42:13;;;;;;;7.95;4.90;;;21.40;99.90;;;;;;5039173;28;20051;-70
2022/09/05 08:44:40;;;;;;;8.98;4.80;;;21.50;99.90;;;;;;5037881;28;20557;-70
2022/09/05 08:47:18;;;;;;;11.20;5.75;;;21.60;99.90;;;;;;5022306;28;20452;-69
2022/09/05 08:50:06;;;;;;;7.18;5.10;;;21.70;99.90;;;;;;5040636;28;20056;-71
2022/09/05 08:52:54;;;;;;;5.85;5.20;;;21.80;99.90;;;;;;5038183;28;20505;-70
2022/09/05 08:55:29;;;;;;;8.40;4.40;;;21.80;99.90;;;;;;5037527;28;20516;-70
2022/09/05 08:58:33;;;;;;;6.43;4.85;;;22.00;99.90;;;;;;5021241;28;20136;-70
2022/09/05 09:01:10;;;;;;;5.40;4.57;;;22.10;99.90;;;;;;5037974;28;20489;-70
2022/09/05 09:03:54;;;;;;;12.63;4.82;;;22.30;99.90;;;;;;5038143;28;20136;-70
2022/09/05 09:06:38;;;;;;;8.05;4.63;;;22.40;99.90;;;;;;5026779;28;20056;-71
2022/09/05 09:09:42;;;;;;;7.57;4.50;;;22.50;99.90;;;;;;5036188;28;20101;-70
2022/09/05 09:12:41;;;;;;;7.38;4.70;;;22.60;99.90;;;;;;5017669;28;20056;-70
2022/09/05 09:15:23;;;;;;;9.48;4.43;;;22.70;99.90;;;;;;5043593;28;20041;-70
2022/09/05 09:17:51;;;;;;;5.82;4.10;;;23.00;99.90;;;;;;5023121;28;20040;-70
2022/09/05 09:20:45;;;;;;;7.03;4.63;;;23.20;99.90;;;;;;5041108;28;20044;-69
2022/09/05 09:23:14;;;;;;;4.97;4.47;;;23.20;99.90;;;;;;5041194;28;20069;-71
2022/09/05 09:26:09;;;;;;;7.32;3.78;;;23.40;99.90;;;;;;5036820;28;20048;-71
2022/09/05 09:28:50;;;;;;;8.85;4.93;;;23.50;99.90;;;;;;5032218;28;20075;-70
2022/09/05 09:31:53;;;;;;;7.82;4.28;;;23.60;99.90;;;;;;5037933;28;20048;-72
2022/09/05 09:34:25;;;;;;;5.90;3.60;;;23.70;99.90;;;;;;5036635;28;20343;-70
2022/09/05 09:36:56;;;;;;;6.82;3.40;;;23.80;99.90;;;;;;5024561;28;20155;-71
2022/09/05 09:39:22;;;;;;;4.55;3.13;;;23.90;99.90;;;;;;5036387;28;20140;-71
2022/09/05 09:41:47;;;;;;;8.85;3.85;;;24.00;99.90;;;;;;5039352;28;20051;-70
2022/09/05 09:44:40;;;;;;;4.05;2.90;;;24.10;99.90;;;;;;5039137;28;20056;-71
2022/09/05 09:47:13;;;;;;;6.18;3.08;;;24.30;99.90;;;;;;5022679;28;20509;-70
2022/09/05 09:50:01;;;;;;;4.63;2.97;;;24.30;99.90;;;;;;5039888;28;20053;-71
2022/09/05 09:52:43;;;;;;;4.70;3.00;;;24.50;99.90;;;;;;5039551;28;20675;-72
2022/09/05 09:55:56;;;;;;;6.03;3.03;;;24.60;99.90;;;;;;5041603;28;20057;-71
2022/09/05 09:58:30;;;;;;;14.85;4.15;;;24.60;99.90;;;;;;5009969;28;20537;-71
2022/09/05 10:01:13;;;;;;;5.90;3.17;;;24.60;99.90;;;;;;5039709;28;20589;-70
2022/09/05 10:03:56;;;;;;;9.63;2.70;;;24.80;99.90;;;;;;5040131;28;20699;-71
2022/09/05 10:06:42;;;;;;;4.78;2.60;;;25.00;99.90;;;;;;5009964;28;20086;-71
2022/09/05 10:09:32;;;;;;;5.03;3.00;;;25.00;99.90;;;;;;5035264;28;20138;-72
2022/09/05 10:12:20;;;;;;;8.07;2.92;;;25.10;99.90;;;;;;5037946;28;20083;-71
2022/09/05 10:14:57;;;;;;;8.50;3.45;;;25.00;99.90;;;;;;5039259;28;20061;-71
2022/09/05 10:17:58;;;;;;;5.18;3.40;;;25.00;99.90;;;;;;5025972;28;20106;-71
2022/09/05 10:20:56;;;;;;;9.63;3.08;;;25.10;99.90;;;;;;5041880;28;20525;-71
2022/09/05 10:23:33;;;;;;;6.40;3.20;;;25.20;99.90;;;;;;5039000;28;20045;-70
2022/09/05 10:26:39;;;;;;;7.90;2.85;;;25.10;99.90;;;;;;5035369;28;20048;-70
2022/09/05 10:29:16;;;;;;;8.02;2.92;;;25.20;99.90;;;;;;5035504;28;20124;-71
2022/09/05 10:31:57;;;;;;;4.88;2.50;;;25.40;99.90;;;;;;5039060;28;20308;-71
2022/09/05 10:34:39;;;;;;;5.55;2.78;;;25.50;99.90;;;;;;5035612;28;20207;-71
2022/09/05 10:37:10;;;;;;;7.18;2.60;;;25.60;99.90;;;;;;5023663;28;20084;-71
2022/09/05 10:39:41;;;;;;;8.23;2.88;;;25.70;99.90;;;;;;5037982;28;20106;-71
2022/09/05 10:42:33;;;;;;;6.47;2.30;;;25.70;99.90;;;;;;5038113;28;20118;-70
2022/09/05 10:45:03;;;;;;;6.53;2.70;;;25.80;99.90;;;;;;5023981;28;20072;-71
2022/09/05 10:47:43;;;;;;;8.85;2.05;;;25.80;99.90;;;;;;5020434;28;20042;-71
2022/09/05 10:50:15;;;;;;;3.47;2.03;;;25.90;99.90;;;;;;5036545;28;20057;-71
2022/09/05 10:52:51;;;;;;;3.15;2.08;;;25.90;99.90;;;;;;5036590;28;20053;-71
2022/09/05 10:55:25;;;;;;;4.50;1.90;;;26.00;99.90;;;;;;5035649;28;20061;-71
2022/09/05 10:57:57;;;;;;;2.50;1.58;;;26.10;99.90;;;;;;5001960;28;20556;-71
2022/09/05 11:00:48;;;;;;;2.83;1.60;;;26.10;99.90;;;;;;5039760;28;20095;-71
2022/09/05 11:03:21;;;;;;;7.22;1.92;;;26.30;99.90;;;;;;5038129;28;20052;-72
2022/09/05 11:05:57;;;;;;;2.47;1.70;;;26.30;99.90;;;;;;5036745;28;20107;-71
2022/09/05 11:08:25;;;;;;;5.13;1.80;;;26.30;99.90;;;;;;5027472;28;20083;-72
2022/09/05 11:11:02;;;;;;;4.32;1.60;;;26.40;99.90;;;;;;5046184;28;20592;-71
2022/09/05 11:13:50;;;;;;;6.20;1.80;;;26.40;99.90;;;;;;5040033;28;20095;-71
2022/09/05 11:16:41;;;;;;;3.60;1.20;;;26.50;99.90;;;;;;5029925;28;20048;-72
2022/09/05 11:19:30;;;;;;;2.97;1.67;;;26.50;99.20;;;;;;5040264;28;20044;-71
2022/09/05 11:22:04;;;;;;;7.13;1.33;;;26.40;99.50;;;;;;5042295;28;20049;-71
2022/09/05 11:24:37;;;;;;;2.30;1.25;;;26.30;99.90;;;;;;5039220;28;20068;-71
2022/09/05 11:27:29;;;;;;;3.08;1.55;;;26.30;99.90;;;;;;5023972;28;20059;-71
2022/09/05 11:29:59;;;;;;;4.30;1.60;;;26.40;99.90;;;;;;5027948;28;20045;-71
2022/09/05 11:32:46;;;;;;;3.05;1.50;;;26.60;99.90;;;;;;5040026;28;20116;-71
2022/09/05 11:35:25;;;;;;;3.40;1.70;;;26.60;99.80;;;;;;5040029;28;20044;-72
2022/09/05 11:38:10;;;;;;;3.47;1.70;;;26.60;99.40;;;;;;5019984;28;20057;-71
2022/09/05 11:41:13;;;;;;;3.97;1.70;;;26.70;99.00;;;;;;5038298;28;20423;-71
2022/09/05 11:44:09;;;;;;;2.40;1.70;;;26.70;99.40;;;;;;5044443;28;20132;-71
2022/09/05 11:47:28;;;;;;;1.83;1.65;;;26.70;98.70;;;;;;5026244;28;20360;-71
2022/09/05 11:50:03;;;;;;;3.22;2.05;;;26.70;98.80;;;;;;5017090;28;20084;-71
2022/09/05 11:52:29;;;;;;;2.85;2.03;;;26.60;99.80;;;;;;5023714;28;20118;-71
2022/09/05 11:55:19;;;;;;;3.30;1.80;;;26.60;99.70;;;;;;5040310;28;20044;-71
2022/09/05 11:58:27;;;;;;;2.80;1.60;;;26.60;99.30;;;;;;5020500;28;20071;-71
2022/09/05 12:01:14;;;;;;;4.57;1.80;;;26.60;99.00;;;;;;5039927;28;20106;-71
2022/09/05 12:03:51;;;;;;;4.57;1.75;;;26.60;99.40;;;;;;5038897;28;20045;-71
2022/09/05 12:06:56;;;;;;;2.22;1.90;;;26.70;99.70;;;;;;5030087;28;20052;-72
2022/09/05 12:09:43;;;;;;;6.65;2.13;;;26.90;99.70;;;;;;5041430;28;20053;-71
2022/09/05 12:12:26;;;;;;;3.80;2.00;;;27.00;99.10;;;;;;5038962;28;20080;-71
2022/09/05 12:15:11;;;;;;;5.07;1.80;;;27.10;98.90;;;;;;5042369;28;20037;-71
2022/09/05 12:18:05;;;;;;;2.63;1.83;;;27.10;98.80;;;;;;5022554;28;20075;-71
2022/09/05 12:20:48;;;;;;;3.00;1.55;;;27.20;99.00;;;;;;5034196;28;20049;-71
2022/09/05 12:23:18;;;;;;;3.70;1.60;;;27.10;97.90;;;;;;5038858;28;20048;-71
2022/09/05 12:26:03;;;;;;;4.97;1.83;;;27.20;98.00;;;;;;5039552;28;20060;-71
2022/09/05 12:29:02;;;;;;;3.47;1.55;;;27.20;97.80;;;;;;5019714;28;20076;-71
2022/09/05 12:31:37;;;;;;;5.53;2.10;;;27.30;98.20;;;;;;5035193;28;20477;-72
2022/09/05 12:34:08;;;;;;;2.40;1.90;;;27.30;97.60;;;;;;5024069;28;20064;-72
2022/09/05 12:36:48;;;;;;;2.30;1.67;;;27.20;98.50;;;;;;5005843;28;20138;-72
2022/09/05 12:39:31;;;;;;;3.03;1.80;;;27.20;97.00;;;;;;5039539;28;20045;-72
2022/09/05 12:42:18;;;;;;;1.92;1.67;;;27.20;96.70;;;;;;5034719;28;20041;-71
2022/09/05 12:45:08;;;;;;;3.13;1.90;;;27.20;97.00;;;;;;5039038;28;20057;-72
2022/09/05 12:47:56;;;;;;;2.38;1.80;;;27.10;97.00;;;;;;5022569;28;20053;-71
2022/09/05 12:50:38;;;;;;;3.58;1.70;;;27.20;97.60;;;;;;5040977;28;20579;-72
2022/09/05 12:53:12;;;;;;;2.60;1.83;;;27.40;97.90;;;;;;5036696;28;20048;-71
2022/09/05 12:55:43;;;;;;;4.18;1.88;;;27.30;97.80;;;;;;5040307;28;20061;-71
2022/09/05 12:58:30;;;;;;;5.53;1.98;;;27.50;98.50;;;;;;5021416;28;20450;-72
2022/09/05 13:01:18;;;;;;;3.60;1.85;;;27.60;97.80;;;;;;5039746;28;20522;-72
2022/09/05 13:03:50;;;;;;;3.15;1.80;;;27.60;97.10;;;;;;5029113;28;20073;-72
2022/09/05 13:06:29;;;;;;;3.35;2.28;;;27.70;97.10;;;;;;5027562;28;20067;-72
2022/09/05 13:09:04;;;;;;;2.80;2.25;;;27.60;97.00;;;;;;5032164;28;20045;-72
2022/09/05 13:11:39;;;;;;;4.30;2.25;;;27.70;96.90;;;;;;5040546;28;20051;-72
2022/09/05 13:14:16;;;;;;;7.90;2.58;;;27.70;97.10;;;;;;5037048;28;20053;-70
2022/09/05 13:16:45;;;;;;;2.97;2.20;;;27.60;96.40;;;;;;5026558;28;20281;-73
2022/09/05 13:19:29;;;;;;;3.28;2.15;;;27.70;97.50;;;;;;5032985;28;20095;-72
2022/09/05 13:21:59;;;;;;;2.92;2.08;;;27.80;96.70;;;;;;5034969;28;20048;-72
2022/09/05 13:24:30;;;;;;;6.68;2.38;;;27.80;97.10;;;;;;5035869;28;20134;-73
2022/09/05 13:27:12;;;;;;;2.45;2.03;;;27.80;96.40;;;;;;5024948;28;20040;-72
2022/09/05 13:29:50;;;;;;;4.90;1.95;;;27.90;96.30;;;;;;5055442;28;20048;-72
2022/09/05 13:32:39;;;;;;;5.90;2.05;;;27.90;96.40;;;;;;5039921;28;20037;-72
2022/09/05 13:35:21;;;;;;;5.38;1.95;;;27.70;95.90;;;;;;5037589;28;20519;-71
2022/09/05 13:37:59;;;;;;;4.07;2.28;;;27.60;96.20;;;;;;5022084;28;20339;-72
2022/09/05 13:40:32;;;;;;;3.42;1.77;;;27.40;95.70;;;;;;5036443;28;20057;-72
2022/09/05 13:43:13;;;;;;;3.83;2.10;;;27.40;96.40;;;;;;5021000;28;20051;-72
2022/09/05 13:46:02;;;;;;;4.20;2.10;;;27.30;96.70;;;;;;5040848;28;20401;-72
2022/09/05 13:48:36;;;;;;;5.20;1.90;;;27.50;95.90;;;;;;5022502;28;20079;-72
2022/09/05 13:51:18;;;;;;;6.72;2.13;;;27.60;96.10;;;;;;5036882;28;20064;-72
2022/09/05 13:53:57;;;;;;;2.47;2.00;;;27.70;95.60;;;;;;5035979;28;20464;-72
2022/09/05 13:56:29;;;;;;;1.92;1.55;;;27.80;95.30;;;;;;5025463;28;20098;-72
2022/09/05 13:59:09;;;;;;;3.15;2.00;;;27.70;94.20;;;;;;5033723;28;20152;-72
2022/09/05 14:02:01;;;;;;;2.83;1.80;;;27.70;95.00;;;;;;5039391;28;20514;-72
2022/09/05 14:04:32;;;;;;;3.70;2.00;;;27.70;94.50;;;;;;5036330;28;20051;-72
2022/09/05 14:07:07;;;;;;;5.28;1.75;;;27.80;94.90;;;;;;5023967;28;20508;-72